sensor_id;sensor_type;location;lat;lon;timestamp;P1;durP1;ratioP1;P2;durP2;ratioP2
41685;SDS011;27370;42.764;23.432;2024-01-15T00:02:02;57.22;;;28.05;;
41685;SDS011;27370;42.764;23.432;2024-01-15T00:04:28;72.57;;;31.65;;
41685;SDS011;27370;42.764;23.432;2024-01-15T00:06:53;83.90;;;35.45;;
41685;SDS011;27370;42.764;23.432;2024-01-15T00:09:19;58.60;;;30.40;;
41685;SDS011;27370;42.764;23.432;2024-01-15T00:11:44;61.67;;;28.02;;
41685;SDS011;27370;42.764;23.432;2024-01-15T00:14:11;84.32;;;34.67;;
41685;SDS011;27370;42.764;23.432;2024-01-15T00:16:40;87.10;;;40.03;;
41685;SDS011;27370;42.764;23.432;2024-01-15T00:19:05;73.60;;;33.88;;
41685;SDS011;27370;42.764;23.432;2024-01-15T00:21:31;88.63;;;37.50;;
41685;SDS011;27370;42.764;23.432;2024-01-15T00:23:56;59.15;;;27.80;;
41685;SDS011;27370;42.764;23.432;2024-01-15T00:26:22;76.88;;;30.60;;
41685;SDS011;27370;42.764;23.432;2024-01-15T00:28:48;68.57;;;28.92;;
41685;SDS011;27370;42.764;23.432;2024-01-15T00:31:15;64.20;;;26.65;;
41685;SDS011;27370;42.764;23.432;2024-01-15T00:33:41;52.67;;;23.63;;
41685;SDS011;27370;42.764;23.432;2024-01-15T00:36:07;50.78;;;23.33;;
41685;SDS011;27370;42.764;23.432;2024-01-15T00:38:32;48.25;;;21.90;;
41685;SDS011;27370;42.764;23.432;2024-01-15T00:40:58;61.83;;;28.45;;
41685;SDS011;27370;42.764;23.432;2024-01-15T00:43:23;55.42;;;26.08;;
41685;SDS011;27370;42.764;23.432;2024-01-15T00:45:49;57.83;;;27.10;;
41685;SDS011;27370;42.764;23.432;2024-01-15T00:48:14;52.45;;;23.75;;
41685;SDS011;27370;42.764;23.432;2024-01-15T00:50:39;44.10;;;22.25;;
41685;SDS011;27370;42.764;23.432;2024-01-15T00:53:05;50.90;;;25.23;;
41685;SDS011;27370;42.764;23.432;2024-01-15T00:55:30;57.20;;;26.42;;
41685;SDS011;27370;42.764;23.432;2024-01-15T00:57:56;41.15;;;22.05;;
41685;SDS011;27370;42.764;23.432;2024-01-15T01:00:21;50.72;;;23.40;;
41685;SDS011;27370;42.764;23.432;2024-01-15T01:02:46;40.70;;;21.30;;
41685;SDS011;27370;42.764;23.432;2024-01-15T01:05:12;41.20;;;22.77;;
41685;SDS011;27370;42.764;23.432;2024-01-15T01:07:37;41.05;;;21.27;;
41685;SDS011;27370;42.764;23.432;2024-01-15T01:10:03;54.17;;;25.55;;
41685;SDS011;27370;42.764;23.432;2024-01-15T01:12:29;47.85;;;24.60;;
41685;SDS011;27370;42.764;23.432;2024-01-15T01:14:55;47.45;;;26.13;;
41685;SDS011;27370;42.764;23.432;2024-01-15T01:17:21;46.20;;;23.05;;
41685;SDS011;27370;42.764;23.432;2024-01-15T01:19:46;54.65;;;21.63;;
41685;SDS011;27370;42.764;23.432;2024-01-15T01:22:12;38.45;;;22.13;;
41685;SDS011;27370;42.764;23.432;2024-01-15T01:24:37;56.53;;;24.63;;
41685;SDS011;27370;42.764;23.432;2024-01-15T01:27:03;44.42;;;22.67;;
41685;SDS011;27370;42.764;23.432;2024-01-15T01:29:28;43.25;;;23.05;;
41685;SDS011;27370;42.764;23.432;2024-01-15T01:31:54;41.38;;;21.67;;
41685;SDS011;27370;42.764;23.432;2024-01-15T01:34:19;50.45;;;24.75;;
41685;SDS011;27370;42.764;23.432;2024-01-15T01:36:45;55.58;;;24.00;;
41685;SDS011;27370;42.764;23.432;2024-01-15T01:39:10;45.15;;;24.80;;
41685;SDS011;27370;42.764;23.432;2024-01-15T01:41:35;54.53;;;22.58;;
41685;SDS011;27370;42.764;23.432;2024-01-15T01:44:01;37.08;;;19.45;;
41685;SDS011;27370;42.764;23.432;2024-01-15T01:46:27;37.47;;;15.45;;
41685;SDS011;27370;42.764;23.432;2024-01-15T01:48:53;26.33;;;12.07;;
41685;SDS011;27370;42.764;23.432;2024-01-15T01:51:20;30.05;;;14.18;;
41685;SDS011;27370;42.764;23.432;2024-01-15T01:53:46;30.63;;;13.32;;
41685;SDS011;27370;42.764;23.432;2024-01-15T01:56:11;26.70;;;12.45;;
41685;SDS011;27370;42.764;23.432;2024-01-15T01:58:37;32.90;;;15.23;;
41685;SDS011;27370;42.764;23.432;2024-01-15T02:01:03;24.63;;;12.95;;
41685;SDS011;27370;42.764;23.432;2024-01-15T02:03:29;23.75;;;13.30;;
41685;SDS011;27370;42.764;23.432;2024-01-15T02:05:55;24.73;;;13.38;;
41685;SDS011;27370;42.764;23.432;2024-01-15T02:08:21;22.92;;;13.30;;
41685;SDS011;27370;42.764;23.432;2024-01-15T02:10:47;28.25;;;14.45;;
41685;SDS011;27370;42.764;23.432;2024-01-15T02:13:12;40.65;;;21.67;;
41685;SDS011;27370;42.764;23.432;2024-01-15T02:15:38;24.88;;;14.75;;
41685;SDS011;27370;42.764;23.432;2024-01-15T02:18:04;27.25;;;14.52;;
41685;SDS011;27370;42.764;23.432;2024-01-15T02:20:32;29.50;;;16.40;;
41685;SDS011;27370;42.764;23.432;2024-01-15T02:25:37;24.63;;;15.02;;
41685;SDS011;27370;42.764;23.432;2024-01-15T02:28:13;42.72;;;21.33;;
41685;SDS011;27370;42.764;23.432;2024-01-15T02:30:42;33.53;;;15.88;;
41685;SDS011;27370;42.764;23.432;2024-01-15T02:33:08;31.77;;;13.88;;
41685;SDS011;27370;42.764;23.432;2024-01-15T02:35:34;32.42;;;18.20;;
41685;SDS011;27370;42.764;23.432;2024-01-15T02:38:02;36.83;;;19.50;;
41685;SDS011;27370;42.764;23.432;2024-01-15T02:40:30;31.10;;;17.20;;
41685;SDS011;27370;42.764;23.432;2024-01-15T02:42:56;23.90;;;12.68;;
41685;SDS011;27370;42.764;23.432;2024-01-15T02:45:23;26.20;;;14.38;;
41685;SDS011;27370;42.764;23.432;2024-01-15T02:47:48;26.77;;;15.35;;
41685;SDS011;27370;42.764;23.432;2024-01-15T02:50:14;31.83;;;14.55;;
41685;SDS011;27370;42.764;23.432;2024-01-15T02:52:40;28.55;;;13.70;;
41685;SDS011;27370;42.764;23.432;2024-01-15T02:55:06;28.77;;;12.27;;
41685;SDS011;27370;42.764;23.432;2024-01-15T02:57:32;107.45;;;44.20;;
41685;SDS011;27370;42.764;23.432;2024-01-15T02:59:57;32.22;;;15.15;;
41685;SDS011;27370;42.764;23.432;2024-01-15T03:02:23;41.83;;;17.63;;
41685;SDS011;27370;42.764;23.432;2024-01-15T03:04:48;28.10;;;15.88;;
41685;SDS011;27370;42.764;23.432;2024-01-15T03:07:13;50.30;;;21.58;;
41685;SDS011;27370;42.764;23.432;2024-01-15T03:09:39;36.72;;;19.05;;
41685;SDS011;27370;42.764;23.432;2024-01-15T03:12:05;36.42;;;18.65;;
41685;SDS011;27370;42.764;23.432;2024-01-15T03:14:30;41.90;;;15.63;;
41685;SDS011;27370;42.764;23.432;2024-01-15T03:16:56;31.25;;;17.58;;
41685;SDS011;27370;42.764;23.432;2024-01-15T03:19:21;36.08;;;16.25;;
41685;SDS011;27370;42.764;23.432;2024-01-15T03:21:47;39.88;;;17.45;;
41685;SDS011;27370;42.764;23.432;2024-01-15T03:24:12;57.58;;;27.20;;
41685;SDS011;27370;42.764;23.432;2024-01-15T03:26:38;64.90;;;34.17;;
41685;SDS011;27370;42.764;23.432;2024-01-15T03:29:03;54.08;;;29.60;;
41685;SDS011;27370;42.764;23.432;2024-01-15T03:31:28;64.03;;;31.85;;
41685;SDS011;27370;42.764;23.432;2024-01-15T03:33:54;71.10;;;33.15;;
41685;SDS011;27370;42.764;23.432;2024-01-15T03:36:20;51.35;;;25.58;;
41685;SDS011;27370;42.764;23.432;2024-01-15T03:38:45;70.95;;;29.88;;
41685;SDS011;27370;42.764;23.432;2024-01-15T03:41:11;80.07;;;34.92;;
41685;SDS011;27370;42.764;23.432;2024-01-15T03:43:36;56.20;;;26.10;;
41685;SDS011;27370;42.764;23.432;2024-01-15T03:46:02;37.30;;;19.38;;
41685;SDS011;27370;42.764;23.432;2024-01-15T03:48:27;39.38;;;19.30;;
41685;SDS011;27370;42.764;23.432;2024-01-15T03:50:53;39.10;;;23.13;;
41685;SDS011;27370;42.764;23.432;2024-01-15T03:53:19;32.63;;;19.20;;
41685;SDS011;27370;42.764;23.432;2024-01-15T03:55:44;42.25;;;16.90;;
41685;SDS011;27370;42.764;23.432;2024-01-15T03:58:09;35.30;;;16.58;;
41685;SDS011;27370;42.764;23.432;2024-01-15T04:00:35;18.58;;;12.70;;
41685;SDS011;27370;42.764;23.432;2024-01-15T04:03:00;27.13;;;13.45;;
41685;SDS011;27370;42.764;23.432;2024-01-15T04:05:26;23.15;;;13.02;;
41685;SDS011;27370;42.764;23.432;2024-01-15T04:07:51;29.30;;;12.98;;
41685;SDS011;27370;42.764;23.432;2024-01-15T04:10:17;32.88;;;17.15;;
41685;SDS011;27370;42.764;23.432;2024-01-15T04:12:42;45.45;;;22.52;;
41685;SDS011;27370;42.764;23.432;2024-01-15T04:15:08;29.88;;;17.65;;
41685;SDS011;27370;42.764;23.432;2024-01-15T04:17:33;27.25;;;13.90;;
41685;SDS011;27370;42.764;23.432;2024-01-15T04:19:59;33.25;;;16.83;;
41685;SDS011;27370;42.764;23.432;2024-01-15T04:22:25;34.17;;;18.17;;
41685;SDS011;27370;42.764;23.432;2024-01-15T04:24:50;34.75;;;18.92;;
41685;SDS011;27370;42.764;23.432;2024-01-15T04:27:16;34.65;;;16.42;;
41685;SDS011;27370;42.764;23.432;2024-01-15T04:29:41;35.65;;;19.85;;
41685;SDS011;27370;42.764;23.432;2024-01-15T04:32:07;30.92;;;17.23;;
41685;SDS011;27370;42.764;23.432;2024-01-15T04:34:32;38.67;;;19.95;;
41685;SDS011;27370;42.764;23.432;2024-01-15T04:36:57;27.08;;;10.15;;
41685;SDS011;27370;42.764;23.432;2024-01-15T04:39:23;39.75;;;16.35;;
41685;SDS011;27370;42.764;23.432;2024-01-15T04:41:48;54.00;;;25.63;;
41685;SDS011;27370;42.764;23.432;2024-01-15T04:44:14;43.08;;;22.08;;
41685;SDS011;27370;42.764;23.432;2024-01-15T04:46:40;31.15;;;17.95;;
41685;SDS011;27370;42.764;23.432;2024-01-15T04:49:05;56.03;;;25.20;;
41685;SDS011;27370;42.764;23.432;2024-01-15T04:51:32;41.70;;;23.23;;
41685;SDS011;27370;42.764;23.432;2024-01-15T04:53:57;42.60;;;23.65;;
41685;SDS011;27370;42.764;23.432;2024-01-15T04:56:22;40.90;;;23.65;;
41685;SDS011;27370;42.764;23.432;2024-01-15T04:58:48;47.15;;;24.30;;
41685;SDS011;27370;42.764;23.432;2024-01-15T05:01:15;54.60;;;23.45;;
41685;SDS011;27370;42.764;23.432;2024-01-15T05:03:41;34.67;;;22.70;;
41685;SDS011;27370;42.764;23.432;2024-01-15T05:06:06;48.65;;;23.80;;
41685;SDS011;27370;42.764;23.432;2024-01-15T05:08:32;47.25;;;25.52;;
41685;SDS011;27370;42.764;23.432;2024-01-15T05:10:57;50.05;;;26.33;;
41685;SDS011;27370;42.764;23.432;2024-01-15T05:13:23;67.45;;;34.85;;
41685;SDS011;27370;42.764;23.432;2024-01-15T05:15:48;85.60;;;43.65;;
41685;SDS011;27370;42.764;23.432;2024-01-15T05:18:13;64.50;;;33.10;;
41685;SDS011;27370;42.764;23.432;2024-01-15T05:20:39;61.38;;;33.28;;
41685;SDS011;27370;42.764;23.432;2024-01-15T05:23:04;77.63;;;39.17;;
41685;SDS011;27370;42.764;23.432;2024-01-15T05:25:30;79.93;;;40.38;;
41685;SDS011;27370;42.764;23.432;2024-01-15T05:27:55;86.38;;;44.60;;
41685;SDS011;27370;42.764;23.432;2024-01-15T05:30:21;68.70;;;33.72;;
41685;SDS011;27370;42.764;23.432;2024-01-15T05:32:46;69.13;;;34.47;;
41685;SDS011;27370;42.764;23.432;2024-01-15T05:35:12;22.58;;;15.65;;
41685;SDS011;27370;42.764;23.432;2024-01-15T05:37:38;70.32;;;31.63;;
41685;SDS011;27370;42.764;23.432;2024-01-15T05:40:05;62.95;;;32.88;;
41685;SDS011;27370;42.764;23.432;2024-01-15T05:42:31;67.45;;;30.23;;
41685;SDS011;27370;42.764;23.432;2024-01-15T05:44:57;53.95;;;30.45;;
41685;SDS011;27370;42.764;23.432;2024-01-15T05:47:24;58.15;;;29.13;;
41685;SDS011;27370;42.764;23.432;2024-01-15T05:49:50;71.22;;;38.38;;
41685;SDS011;27370;42.764;23.432;2024-01-15T05:52:15;98.00;;;46.17;;
41685;SDS011;27370;42.764;23.432;2024-01-15T05:54:41;90.65;;;46.00;;
41685;SDS011;27370;42.764;23.432;2024-01-15T05:57:06;79.55;;;41.65;;
41685;SDS011;27370;42.764;23.432;2024-01-15T05:59:32;30.40;;;19.33;;
41685;SDS011;27370;42.764;23.432;2024-01-15T06:01:59;54.97;;;27.10;;
41685;SDS011;27370;42.764;23.432;2024-01-15T06:04:24;57.30;;;31.70;;
41685;SDS011;27370;42.764;23.432;2024-01-15T06:06:50;62.03;;;29.83;;
41685;SDS011;27370;42.764;23.432;2024-01-15T06:09:15;60.10;;;30.40;;
41685;SDS011;27370;42.764;23.432;2024-01-15T06:11:41;53.80;;;27.25;;
41685;SDS011;27370;42.764;23.432;2024-01-15T06:14:06;54.15;;;25.75;;
41685;SDS011;27370;42.764;23.432;2024-01-15T06:16:31;32.67;;;18.67;;
41685;SDS011;27370;42.764;23.432;2024-01-15T06:18:57;62.38;;;29.65;;
41685;SDS011;27370;42.764;23.432;2024-01-15T06:21:23;101.20;;;48.67;;
41685;SDS011;27370;42.764;23.432;2024-01-15T06:23:49;100.70;;;47.25;;
41685;SDS011;27370;42.764;23.432;2024-01-15T06:26:14;83.82;;;41.03;;
41685;SDS011;27370;42.764;23.432;2024-01-15T06:28:40;51.80;;;27.95;;
41685;SDS011;27370;42.764;23.432;2024-01-15T06:31:08;68.40;;;33.95;;
41685;SDS011;27370;42.764;23.432;2024-01-15T06:33:34;62.08;;;32.33;;
41685;SDS011;27370;42.764;23.432;2024-01-15T06:35:59;59.88;;;29.10;;
41685;SDS011;27370;42.764;23.432;2024-01-15T06:38:24;64.57;;;30.45;;
41685;SDS011;27370;42.764;23.432;2024-01-15T06:40:50;57.85;;;30.40;;
41685;SDS011;27370;42.764;23.432;2024-01-15T06:43:17;42.35;;;23.02;;
41685;SDS011;27370;42.764;23.432;2024-01-15T06:45:42;70.15;;;34.60;;
41685;SDS011;27370;42.764;23.432;2024-01-15T06:48:08;42.72;;;24.20;;
41685;SDS011;27370;42.764;23.432;2024-01-15T06:50:34;24.75;;;14.10;;
41685;SDS011;27370;42.764;23.432;2024-01-15T06:52:59;54.70;;;27.35;;
41685;SDS011;27370;42.764;23.432;2024-01-15T06:55:25;58.22;;;28.58;;
41685;SDS011;27370;42.764;23.432;2024-01-15T06:57:51;45.95;;;26.00;;
41685;SDS011;27370;42.764;23.432;2024-01-15T07:00:17;60.17;;;31.65;;
41685;SDS011;27370;42.764;23.432;2024-01-15T07:02:44;57.97;;;27.60;;
41685;SDS011;27370;42.764;23.432;2024-01-15T07:05:10;70.60;;;26.80;;
41685;SDS011;27370;42.764;23.432;2024-01-15T07:07:36;43.83;;;22.27;;
41685;SDS011;27370;42.764;23.432;2024-01-15T07:10:01;55.33;;;26.95;;
41685;SDS011;27370;42.764;23.432;2024-01-15T07:12:28;66.65;;;30.48;;
41685;SDS011;27370;42.764;23.432;2024-01-15T07:14:55;56.08;;;26.48;;
41685;SDS011;27370;42.764;23.432;2024-01-15T07:17:21;67.70;;;32.63;;
41685;SDS011;27370;42.764;23.432;2024-01-15T07:19:47;63.38;;;31.70;;
41685;SDS011;27370;42.764;23.432;2024-01-15T07:22:12;92.72;;;41.47;;
41685;SDS011;27370;42.764;23.432;2024-01-15T07:24:38;84.00;;;38.58;;
41685;SDS011;27370;42.764;23.432;2024-01-15T07:27:03;78.22;;;36.28;;
41685;SDS011;27370;42.764;23.432;2024-01-15T07:29:30;76.65;;;37.70;;
41685;SDS011;27370;42.764;23.432;2024-01-15T07:31:58;75.25;;;38.45;;
41685;SDS011;27370;42.764;23.432;2024-01-15T07:34:23;68.22;;;32.80;;
41685;SDS011;27370;42.764;23.432;2024-01-15T07:36:49;67.38;;;31.27;;
41685;SDS011;27370;42.764;23.432;2024-01-15T07:39:14;78.55;;;33.38;;
41685;SDS011;27370;42.764;23.432;2024-01-15T07:41:40;61.97;;;32.40;;
41685;SDS011;27370;42.764;23.432;2024-01-15T07:44:05;80.30;;;39.45;;
41685;SDS011;27370;42.764;23.432;2024-01-15T07:46:31;83.85;;;41.75;;
41685;SDS011;27370;42.764;23.432;2024-01-15T07:48:57;70.95;;;38.05;;
41685;SDS011;27370;42.764;23.432;2024-01-15T07:51:25;71.25;;;34.35;;
41685;SDS011;27370;42.764;23.432;2024-01-15T07:53:54;88.80;;;42.55;;
41685;SDS011;27370;42.764;23.432;2024-01-15T07:56:22;78.88;;;37.20;;
41685;SDS011;27370;42.764;23.432;2024-01-15T07:58:48;66.70;;;35.15;;
41685;SDS011;27370;42.764;23.432;2024-01-15T08:01:13;81.60;;;39.75;;
41685;SDS011;27370;42.764;23.432;2024-01-15T08:03:39;69.47;;;37.47;;
41685;SDS011;27370;42.764;23.432;2024-01-15T08:06:05;76.15;;;34.17;;
41685;SDS011;27370;42.764;23.432;2024-01-15T08:08:30;86.07;;;40.35;;
41685;SDS011;27370;42.764;23.432;2024-01-15T08:10:56;84.20;;;41.78;;
41685;SDS011;27370;42.764;23.432;2024-01-15T08:13:22;56.63;;;26.90;;
41685;SDS011;27370;42.764;23.432;2024-01-15T08:15:47;60.88;;;27.90;;
41685;SDS011;27370;42.764;23.432;2024-01-15T08:18:12;53.38;;;28.55;;
41685;SDS011;27370;42.764;23.432;2024-01-15T08:20:38;64.25;;;33.58;;
41685;SDS011;27370;42.764;23.432;2024-01-15T08:23:04;51.15;;;26.33;;
41685;SDS011;27370;42.764;23.432;2024-01-15T08:25:29;38.20;;;22.40;;
41685;SDS011;27370;42.764;23.432;2024-01-15T08:27:58;44.78;;;22.17;;
41685;SDS011;27370;42.764;23.432;2024-01-15T08:30:23;37.83;;;20.98;;
41685;SDS011;27370;42.764;23.432;2024-01-15T08:32:55;43.45;;;21.80;;
41685;SDS011;27370;42.764;23.432;2024-01-15T08:35:21;41.67;;;21.48;;
41685;SDS011;27370;42.764;23.432;2024-01-15T08:37:57;36.50;;;17.08;;
41685;SDS011;27370;42.764;23.432;2024-01-15T08:40:23;37.72;;;20.58;;
41685;SDS011;27370;42.764;23.432;2024-01-15T08:42:48;58.20;;;28.80;;
41685;SDS011;27370;42.764;23.432;2024-01-15T08:45:15;51.95;;;24.33;;
41685;SDS011;27370;42.764;23.432;2024-01-15T08:47:40;53.85;;;27.50;;
41685;SDS011;27370;42.764;23.432;2024-01-15T08:50:06;54.15;;;25.20;;
41685;SDS011;27370;42.764;23.432;2024-01-15T08:52:35;62.75;;;27.83;;
41685;SDS011;27370;42.764;23.432;2024-01-15T08:55:01;58.33;;;31.27;;
41685;SDS011;27370;42.764;23.432;2024-01-15T08:57:26;56.92;;;30.08;;
41685;SDS011;27370;42.764;23.432;2024-01-15T08:59:52;53.25;;;26.63;;
41685;SDS011;27370;42.764;23.432;2024-01-15T09:02:17;40.55;;;23.80;;
41685;SDS011;27370;42.764;23.432;2024-01-15T09:04:43;35.92;;;20.88;;
41685;SDS011;27370;42.764;23.432;2024-01-15T09:07:08;46.40;;;25.23;;
41685;SDS011;27370;42.764;23.432;2024-01-15T09:09:34;41.03;;;24.52;;
41685;SDS011;27370;42.764;23.432;2024-01-15T09:12:00;49.25;;;18.40;;
41685;SDS011;27370;42.764;23.432;2024-01-15T09:14:25;36.65;;;18.02;;
41685;SDS011;27370;42.764;23.432;2024-01-15T09:16:52;33.08;;;15.63;;
41685;SDS011;27370;42.764;23.432;2024-01-15T09:19:18;38.15;;;17.23;;
41685;SDS011;27370;42.764;23.432;2024-01-15T09:21:44;33.17;;;18.25;;
41685;SDS011;27370;42.764;23.432;2024-01-15T09:24:10;35.25;;;19.25;;
41685;SDS011;27370;42.764;23.432;2024-01-15T09:26:35;32.60;;;18.08;;
41685;SDS011;27370;42.764;23.432;2024-01-15T09:29:01;40.13;;;21.45;;
41685;SDS011;27370;42.764;23.432;2024-01-15T09:31:28;43.35;;;23.70;;
41685;SDS011;27370;42.764;23.432;2024-01-15T09:33:53;47.15;;;23.90;;
41685;SDS011;27370;42.764;23.432;2024-01-15T09:36:21;38.40;;;21.85;;
41685;SDS011;27370;42.764;23.432;2024-01-15T09:38:48;72.40;;;31.80;;
41685;SDS011;27370;42.764;23.432;2024-01-15T09:41:13;65.32;;;29.73;;
41685;SDS011;27370;42.764;23.432;2024-01-15T09:43:39;48.45;;;25.83;;
41685;SDS011;27370;42.764;23.432;2024-01-15T09:46:05;41.95;;;20.88;;
41685;SDS011;27370;42.764;23.432;2024-01-15T09:48:31;38.50;;;20.13;;
41685;SDS011;27370;42.764;23.432;2024-01-15T09:50:59;50.70;;;27.27;;
41685;SDS011;27370;42.764;23.432;2024-01-15T09:53:26;57.03;;;33.53;;
41685;SDS011;27370;42.764;23.432;2024-01-15T09:55:52;87.68;;;45.85;;
41685;SDS011;27370;42.764;23.432;2024-01-15T09:58:18;66.70;;;39.08;;
41685;SDS011;27370;42.764;23.432;2024-01-15T10:00:44;62.03;;;32.83;;
41685;SDS011;27370;42.764;23.432;2024-01-15T10:03:09;55.85;;;31.80;;
41685;SDS011;27370;42.764;23.432;2024-01-15T10:05:36;57.22;;;32.40;;
41685;SDS011;27370;42.764;23.432;2024-01-15T10:08:02;62.63;;;33.67;;
41685;SDS011;27370;42.764;23.432;2024-01-15T10:10:29;60.05;;;29.20;;
41685;SDS011;27370;42.764;23.432;2024-01-15T10:12:54;53.50;;;30.77;;
41685;SDS011;27370;42.764;23.432;2024-01-15T10:15:23;51.10;;;29.92;;
41685;SDS011;27370;42.764;23.432;2024-01-15T10:17:49;49.60;;;27.60;;
41685;SDS011;27370;42.764;23.432;2024-01-15T10:20:15;45.00;;;24.83;;
41685;SDS011;27370;42.764;23.432;2024-01-15T10:22:41;48.30;;;21.00;;
41685;SDS011;27370;42.764;23.432;2024-01-15T10:25:11;33.95;;;19.48;;
41685;SDS011;27370;42.764;23.432;2024-01-15T10:27:38;36.90;;;21.13;;
41685;SDS011;27370;42.764;23.432;2024-01-15T10:30:03;40.08;;;20.30;;
41685;SDS011;27370;42.764;23.432;2024-01-15T10:32:30;40.20;;;21.83;;
41685;SDS011;27370;42.764;23.432;2024-01-15T10:34:55;46.13;;;24.10;;
41685;SDS011;27370;42.764;23.432;2024-01-15T10:37:21;36.42;;;18.42;;
41685;SDS011;27370;42.764;23.432;2024-01-15T10:39:49;93.25;;;23.55;;
41685;SDS011;27370;42.764;23.432;2024-01-15T10:42:15;36.03;;;18.70;;
41685;SDS011;27370;42.764;23.432;2024-01-15T10:44:41;33.22;;;17.42;;
41685;SDS011;27370;42.764;23.432;2024-01-15T10:47:08;37.95;;;20.70;;
41685;SDS011;27370;42.764;23.432;2024-01-15T10:49:34;45.83;;;21.85;;
41685;SDS011;27370;42.764;23.432;2024-01-15T10:52:03;48.55;;;24.27;;
41685;SDS011;27370;42.764;23.432;2024-01-15T10:54:29;45.45;;;23.60;;
41685;SDS011;27370;42.764;23.432;2024-01-15T10:56:55;45.33;;;23.50;;
41685;SDS011;27370;42.764;23.432;2024-01-15T10:59:21;49.17;;;25.27;;
41685;SDS011;27370;42.764;23.432;2024-01-15T11:01:50;44.17;;;26.38;;
41685;SDS011;27370;42.764;23.432;2024-01-15T11:04:18;52.58;;;26.27;;
41685;SDS011;27370;42.764;23.432;2024-01-15T11:06:46;47.72;;;23.60;;
41685;SDS011;27370;42.764;23.432;2024-01-15T11:09:20;48.65;;;25.25;;
41685;SDS011;27370;42.764;23.432;2024-01-15T11:11:46;51.13;;;27.38;;
41685;SDS011;27370;42.764;23.432;2024-01-15T11:17:01;46.67;;;24.02;;
41685;SDS011;27370;42.764;23.432;2024-01-15T11:19:35;48.45;;;26.23;;
41685;SDS011;27370;42.764;23.432;2024-01-15T11:22:02;52.20;;;26.48;;
41685;SDS011;27370;42.764;23.432;2024-01-15T11:24:34;51.42;;;28.85;;
41685;SDS011;27370;42.764;23.432;2024-01-15T11:27:06;42.17;;;23.67;;
41685;SDS011;27370;42.764;23.432;2024-01-15T11:29:35;56.58;;;28.90;;
41685;SDS011;27370;42.764;23.432;2024-01-15T11:32:05;56.78;;;27.73;;
41685;SDS011;27370;42.764;23.432;2024-01-15T11:37:15;55.35;;;30.73;;
41685;SDS011;27370;42.764;23.432;2024-01-15T11:39:43;62.20;;;32.78;;
41685;SDS011;27370;42.764;23.432;2024-01-15T11:42:10;53.83;;;28.85;;
41685;SDS011;27370;42.764;23.432;2024-01-15T11:44:37;43.80;;;25.52;;
41685;SDS011;27370;42.764;23.432;2024-01-15T11:47:04;36.08;;;22.42;;
41685;SDS011;27370;42.764;23.432;2024-01-15T11:52:05;49.55;;;27.25;;
41685;SDS011;27370;42.764;23.432;2024-01-15T11:54:32;51.53;;;28.05;;
41685;SDS011;27370;42.764;23.432;2024-01-15T11:56:59;45.67;;;25.90;;
41685;SDS011;27370;42.764;23.432;2024-01-15T11:59:25;43.60;;;24.58;;
41685;SDS011;27370;42.764;23.432;2024-01-15T12:01:51;48.67;;;24.27;;
41685;SDS011;27370;42.764;23.432;2024-01-15T12:04:20;49.97;;;25.45;;
41685;SDS011;27370;42.764;23.432;2024-01-15T12:06:46;47.38;;;24.85;;
41685;SDS011;27370;42.764;23.432;2024-01-15T12:09:11;47.55;;;26.48;;
41685;SDS011;27370;42.764;23.432;2024-01-15T12:11:37;53.45;;;27.52;;
41685;SDS011;27370;42.764;23.432;2024-01-15T12:14:04;50.35;;;27.85;;
41685;SDS011;27370;42.764;23.432;2024-01-15T12:16:29;39.95;;;22.48;;
41685;SDS011;27370;42.764;23.432;2024-01-15T12:18:55;46.90;;;23.10;;
41685;SDS011;27370;42.764;23.432;2024-01-15T12:21:20;55.38;;;25.27;;
41685;SDS011;27370;42.764;23.432;2024-01-15T12:23:46;42.13;;;23.92;;
41685;SDS011;27370;42.764;23.432;2024-01-15T12:26:13;51.13;;;26.23;;
41685;SDS011;27370;42.764;23.432;2024-01-15T12:28:39;53.75;;;27.85;;
41685;SDS011;27370;42.764;23.432;2024-01-15T12:31:05;54.40;;;26.67;;
41685;SDS011;27370;42.764;23.432;2024-01-15T12:33:30;50.15;;;26.73;;
41685;SDS011;27370;42.764;23.432;2024-01-15T12:35:56;50.28;;;26.35;;
41685;SDS011;27370;42.764;23.432;2024-01-15T12:38:21;51.25;;;28.60;;
41685;SDS011;27370;42.764;23.432;2024-01-15T12:40:47;55.55;;;27.35;;
41685;SDS011;27370;42.764;23.432;2024-01-15T12:43:13;60.83;;;30.33;;
41685;SDS011;27370;42.764;23.432;2024-01-15T12:45:38;52.63;;;25.85;;
41685;SDS011;27370;42.764;23.432;2024-01-15T12:48:04;58.45;;;28.50;;
41685;SDS011;27370;42.764;23.432;2024-01-15T12:50:30;68.35;;;35.20;;
41685;SDS011;27370;42.764;23.432;2024-01-15T12:52:55;52.85;;;26.98;;
41685;SDS011;27370;42.764;23.432;2024-01-15T12:55:21;49.55;;;26.05;;
41685;SDS011;27370;42.764;23.432;2024-01-15T12:57:47;54.72;;;27.52;;
41685;SDS011;27370;42.764;23.432;2024-01-15T13:00:12;50.40;;;25.20;;
41685;SDS011;27370;42.764;23.432;2024-01-15T13:02:38;48.50;;;26.80;;
41685;SDS011;27370;42.764;23.432;2024-01-15T13:05:05;41.45;;;23.20;;
41685;SDS011;27370;42.764;23.432;2024-01-15T13:07:31;51.58;;;26.63;;
41685;SDS011;27370;42.764;23.432;2024-01-15T13:09:57;39.03;;;20.98;;
41685;SDS011;27370;42.764;23.432;2024-01-15T13:12:22;55.47;;;30.38;;
41685;SDS011;27370;42.764;23.432;2024-01-15T13:14:48;51.25;;;24.45;;
41685;SDS011;27370;42.764;23.432;2024-01-15T13:17:13;36.38;;;22.00;;
41685;SDS011;27370;42.764;23.432;2024-01-15T13:19:42;53.08;;;28.10;;
41685;SDS011;27370;42.764;23.432;2024-01-15T13:22:07;54.53;;;28.85;;
41685;SDS011;27370;42.764;23.432;2024-01-15T13:24:34;51.83;;;24.23;;
41685;SDS011;27370;42.764;23.432;2024-01-15T13:27:01;41.80;;;25.08;;
41685;SDS011;27370;42.764;23.432;2024-01-15T13:29:28;55.67;;;25.88;;
41685;SDS011;27370;42.764;23.432;2024-01-15T13:31:53;42.08;;;21.85;;
41685;SDS011;27370;42.764;23.432;2024-01-15T13:34:19;43.83;;;24.60;;
41685;SDS011;27370;42.764;23.432;2024-01-15T13:36:44;51.58;;;26.10;;
41685;SDS011;27370;42.764;23.432;2024-01-15T13:39:10;66.00;;;30.67;;
41685;SDS011;27370;42.764;23.432;2024-01-15T13:41:36;61.50;;;31.73;;
41685;SDS011;27370;42.764;23.432;2024-01-15T13:44:01;68.97;;;35.22;;
41685;SDS011;27370;42.764;23.432;2024-01-15T13:46:27;74.53;;;33.70;;
41685;SDS011;27370;42.764;23.432;2024-01-15T13:48:54;75.38;;;38.42;;
41685;SDS011;27370;42.764;23.432;2024-01-15T13:51:23;82.75;;;39.53;;
41685;SDS011;27370;42.764;23.432;2024-01-15T13:53:48;96.60;;;43.05;;
41685;SDS011;27370;42.764;23.432;2024-01-15T13:56:14;92.13;;;47.22;;
41685;SDS011;27370;42.764;23.432;2024-01-15T13:58:40;241.70;;;93.78;;
41685;SDS011;27370;42.764;23.432;2024-01-15T14:01:05;153.30;;;65.20;;
41685;SDS011;27370;42.764;23.432;2024-01-15T14:03:31;97.90;;;45.05;;
41685;SDS011;27370;42.764;23.432;2024-01-15T14:05:57;74.15;;;38.10;;
41685;SDS011;27370;42.764;23.432;2024-01-15T14:08:23;61.65;;;35.10;;
41685;SDS011;27370;42.764;23.432;2024-01-15T14:10:48;57.08;;;31.30;;
41685;SDS011;27370;42.764;23.432;2024-01-15T14:13:14;76.53;;;40.70;;